Latest Weather Observations for Mount Crawford

IDS60901

Issued at 3:51 pm CST Friday 19 April 2019 (issued every 10 minutes, with the page automatically refreshed every 10 minutes)

About weather observations | Map of Adelaide area stations | Latest observations for Adelaide area | Other Formats
Station Details ID: 023878 Name: MOUNT CRAWFORD AWS Lat: -34.73 Lon: 138.93 Height: 525.0 m
Data from the previous 72 hours. | See also: Recent months at Mount Crawford
Date/Time
CST
Temp
°C
App
Temp
°C
Dew
Point
°C
Rel
Hum
%
Delta-T
°C
Wind Press
QNH
hPa
Press
MSL
hPa
Rain since
9am
mm
Dir  Spd
km/h
Gust
km/h
Spd
kts
Gust
kts
19/03:30pm 27.4 21.5 3.8 22 12.1 NNE 24 32 13 17 1020.8 1019.9 0.0
19/03:00pm 27.8 22.2 3.5 21 12.4 NNE 22 30 12 16 1020.9 1020.0 0.0
19/02:30pm 27.8 22.9 4.2 22 12.2 N 19 28 10 15 1021.0 1020.1 0.0
19/02:00pm 27.9 22.7 3.6 21 12.5 N 20 28 11 15 1021.0 1020.1 0.0
19/01:30pm 29.5 24.4 4.2 20 13.2 NNE 20 28 11 15 1021.4 1020.4 0.0
19/01:00pm 27.5 22.4 3.9 22 12.2 NNE 20 28 11 15 1021.8 1020.8 0.0
19/12:30pm 26.1 21.1 3.4 23 11.5 NNE 19 28 10 15 1022.4 1021.5 0.0
19/12:00pm 25.6 20.0 3.6 24 11.1 NNE 22 32 12 17 1022.9 1022.0 0.0
19/11:30am 25.0 19.8 3.6 25 10.8 NNE 20 28 11 15 1023.4 1022.4 0.0
19/11:00am 24.9 19.9 3.5 25 10.8 NNE 19 32 10 17 1023.7 1022.8 0.0
19/10:30am 24.0 19.3 3.3 26 10.3 NE 17 20 9 11 1023.9 1023.0 0.0
19/10:00am 22.6 17.8 2.7 27 9.7 ENE 17 20 9 11 1024.1 1023.2 0.0
19/09:30am 20.1 15.2 2.0 30 8.5 NE 17 22 9 12 1024.3 1023.4 0.0
19/09:00am 20.8 15.3 2.1 29 8.9 NE 20 28 11 15 1024.5 1023.6 0.0
19/08:30am 18.2 12.1 0.4 30 8.0 NE 22 28 12 15 1024.5 1023.6 0.0
19/08:00am 16.9 10.2 -0.8 30 7.7 ENE 24 35 13 19 1024.2 1023.3 0.0
19/07:30am 15.0 8.6 -1.5 32 6.9 NE 22 35 12 19 1023.7 1022.8 0.0
19/07:00am 14.2 8.1 -2.2 32 6.8 NE 20 30 11 16 1023.7 1022.8 0.0
19/06:30am 13.8 6.1 -2.6 32 6.6 NE 28 39 15 21 1023.5 1022.5 0.0
19/06:00am 13.8 5.8 -2.6 32 6.6 NE 30 44 16 24 1023.4 1022.4 0.0
19/05:30am 13.5 4.5 -2.4 33 6.4 ENE 35 48 19 26 1023.3 1022.3 0.0
19/05:00am 13.1 5.0 -2.8 33 6.4 ENE 30 43 16 23 1023.3 1022.3 0.0
19/04:30am 12.9 4.5 -2.6 34 6.2 ENE 32 43 17 23 1023.3 1022.3 0.0
19/04:00am 12.8 4.4 -2.6 34 6.2 ENE 32 43 17 23 1023.2 1022.2 0.0
19/03:30am 13.0 4.4 -2.5 34 6.2 ENE 33 46 18 25 1023.2 1022.2 0.0
19/03:00am 12.8 4.2 -2.3 35 6.1 ENE 33 46 18 25 1023.0 1022.1 0.0
19/02:30am 12.7 4.1 -2.3 35 6.0 ENE 33 46 18 25 1023.3 1022.3 0.0
19/02:00am 12.8 4.4 -2.6 34 6.2 ENE 32 44 17 24 1024.0 1023.1 0.0
19/01:30am 12.8 4.2 -2.6 34 6.2 ENE 33 44 18 24 1024.2 1023.3 0.0
19/01:00am 13.0 4.6 -2.1 35 6.2 ENE 32 46 17 25 1024.3 1023.4 0.0
19/12:30am 13.1 5.1 -2.0 35 6.1 E 30 37 16 20 1024.4 1023.5 0.0
19/12:00am 13.7 5.3 -2.3 33 6.5 ENE 32 41 17 22 1024.5 1023.6 0.0
 
Date/Time
CST
Temp
°C
App
Temp
°C
Dew
Point
°C
Rel
Hum
%
Delta-T
°C
Wind Press
QNH
hPa
Press
MSL
hPa
Rain since
9am
mm
Dir  Spd
km/h
Gust
km/h
Spd
kts
Gust
kts
18/11:30pm 13.9 5.9 -2.1 33 6.6 E 30 37 16 20 1024.7 1023.8 0.0
18/11:00pm 13.8 5.8 -2.6 32 6.7 E 30 37 16 20 1024.8 1023.9 0.0
18/10:30pm 13.7 6.1 -2.3 33 6.5 E 28 35 15 19 1025.0 1024.1 0.0
18/10:00pm 13.7 5.7 -2.3 33 6.5 E 30 37 16 20 1025.0 1024.1 0.0
18/09:30pm 13.9 6.3 -2.1 33 6.5 E 28 35 15 19 1025.2 1024.2 0.0
18/09:00pm 13.9 5.9 -2.1 33 6.5 E 30 37 16 20 1025.0 1024.1 0.0
18/08:30pm 14.0 6.1 -1.6 34 6.5 E 30 37 16 20 1024.9 1024.0 0.0
18/08:00pm 14.1 6.6 -1.5 34 6.5 E 28 39 15 21 1024.7 1023.8 0.0
18/07:30pm 14.3 6.8 -1.3 34 6.5 E 28 35 15 19 1024.7 1023.8 0.0
18/07:00pm 14.5 7.0 -1.2 34 6.6 E 28 35 15 19 1024.7 1023.8 0.0
18/06:30pm 14.7 7.6 -1.0 34 6.6 E 26 35 14 19 1024.4 1023.5 0.0
18/06:00pm 15.3 8.3 -0.4 34 6.8 E 26 33 14 18 1024.3 1023.4 0.0
18/05:30pm 15.9 9.3 -0.3 33 7.0 E 24 35 13 19 1024.2 1023.3 0.0
18/05:00pm 16.5 9.9 -0.2 32 7.3 E 24 35 13 19 1024.3 1023.4 0.0
18/04:30pm 17.2 11.4 -0.1 31 7.6 ENE 20 32 11 17 1024.2 1023.3 0.0
18/04:00pm 17.3 10.8 0.0 31 7.7 E 24 33 13 18 1024.2 1023.3 0.0
18/03:30pm 17.7 11.6 0.4 31 7.7 E 22 32 12 17 1024.4 1023.5 0.0
18/03:00pm 17.7 12.0 0.8 32 7.6 E 20 30 11 16 1024.5 1023.6 0.0
18/02:30pm 18.5 12.6 1.5 32 7.8 ENE 22 32 12 17 1024.7 1023.8 0.0
18/02:00pm 17.8 11.5 1.7 34 7.4 E 24 35 13 19 1024.7 1023.8 0.0
18/01:30pm 17.6 11.2 1.2 33 7.4 E 24 37 13 20 1024.7 1023.8 0.0
18/01:00pm 17.0 9.8 1.0 34 7.2 E 28 37 15 20 1025.2 1024.2 0.0
18/12:30pm 15.8 8.7 1.2 37 6.5 E 28 39 15 21 1025.6 1024.7 0.0
18/12:00pm 16.1 9.0 1.4 37 6.6 E 28 41 15 22 1026.0 1025.1 0.0
18/11:30am 14.7 7.4 2.6 44 5.5 E 30 43 16 23 1026.4 1025.5 0.0
18/11:00am 14.1 6.7 4.1 51 4.7 E 32 43 17 23 1026.6 1025.7 0.0
18/10:30am 14.2 7.0 4.8 53 4.5 E 32 46 17 25 1026.7 1025.8 0.0
18/10:03am 13.6 6.8 5.0 56 4.1 E 30 48 16 26 1026.8 1025.9 0.0
18/10:00am 13.9 6.7 5.0 55 4.3 E 32 48 17 26 1026.8 1025.9 0.0
18/09:30am 12.4 5.0 5.1 61 3.4 E 33 50 18 27 1026.8 1025.9 0.0
18/09:00am 11.6 4.5 5.5 66 2.9 E 32 44 17 24 1026.6 1025.7 0.2
18/08:54am 11.9 4.9 6.0 67 2.8 E 32 50 17 27 1026.7 1025.8 0.2
18/08:30am 10.9 3.8 5.4 69 2.6 E 32 46 17 25 1026.6 1025.7 0.2
18/08:00am 10.3 3.2 5.7 73 2.2 E 32 46 17 25 1026.4 1025.5 0.2
18/07:30am 9.4 3.1 5.8 78 1.7 E 28 39 15 21 1026.1 1025.2 0.2
18/07:00am 8.7 2.4 5.6 81 1.4 E 28 39 15 21 1025.8 1024.9 0.2
18/06:30am 8.6 2.0 5.9 83 1.3 E 30 39 16 21 1025.3 1024.3 0.2
18/06:00am 8.7 2.1 6.0 83 1.3 ESE 30 37 16 20 1024.9 1024.0 0.2
18/05:30am 9.0 2.9 6.4 84 1.2 ESE 28 35 15 19 1024.8 1023.9 0.2
18/05:00am 9.4 3.3 6.5 82 1.4 ESE 28 37 15 20 1024.8 1023.9 0.2
18/04:30am 9.5 3.4 6.4 81 1.5 ESE 28 35 15 19 1024.4 1023.5 0.2
18/04:00am 9.6 4.3 6.7 82 1.4 ESE 24 33 13 18 1024.3 1023.4 0.2
18/03:30am 9.6 4.6 6.3 80 1.6 ESE 22 32 12 17 1024.1 1023.2 0.2
18/03:00am 10.0 4.9 6.2 77 1.8 SE 22 33 12 18 1024.1 1023.2 0.2
18/02:30am 10.3 5.7 6.3 76 1.9 SE 20 32 11 17 1024.1 1023.2 0.2
18/02:00am 10.4 5.0 6.4 76 1.9 SSE 24 33 13 18 1024.1 1023.2 0.2
18/01:30am 10.4 5.3 6.2 75 2.0 SSE 22 28 12 15 1024.2 1023.3 0.2
18/01:00am 10.6 6.0 6.4 75 2.0 SSE 20 30 11 16 1024.3 1023.4 0.2
18/12:30am 10.7 6.7 6.8 77 1.9 SE 17 24 9 13 1024.3 1023.4 0.2
18/12:00am 11.0 7.1 7.3 78 1.8 SSE 17 26 9 14 1024.1 1023.2 0.2
 
Date/Time
CST
Temp
°C
App
Temp
°C
Dew
Point
°C
Rel
Hum
%
Delta-T
°C
Wind Press
QNH
hPa
Press
MSL
hPa
Rain since
9am
mm
Dir  Spd
km/h
Gust
km/h
Spd
kts
Gust
kts
17/11:30pm 11.3 6.6 7.6 78 1.8 S 22 30 12 16 1024.1 1023.2 0.2
17/11:00pm 11.6 7.0 8.1 79 1.8 S 22 30 12 16 1024.0 1023.1 0.2
17/10:30pm 11.8 7.0 9.0 83 1.4 S 24 33 13 18 1023.8 1022.9 0.2
17/10:00pm 12.2 8.3 9.6 84 1.4 S 20 32 11 17 1023.8 1022.9 0.2
17/09:30pm 12.9 8.4 9.9 82 1.6 S 24 35 13 19 1023.7 1022.8 0.2
17/09:00pm 13.9 10.8 11.6 86 1.3 S 19 24 10 13 1023.4 1022.4 0.2
17/08:30pm 14.4 11.4 10.8 79 1.9 SSW 17 22 9 12 1023.3 1022.3 0.2
17/08:00pm 14.7 11.7 10.7 77 2.2 SW 17 24 9 13 1022.8 1021.9 0.2
17/07:30pm 15.1 12.6 10.9 76 2.3 WSW 15 20 8 11 1022.6 1021.7 0.2
17/07:00pm 15.8 13.3 12.2 79 2.0 WSW 17 22 9 12 1022.0 1021.1 0.2
17/06:30pm 16.7 13.6 11.6 72 2.8 WSW 19 30 10 16 1021.5 1020.5 0.2
17/06:00pm 17.6 14.2 10.5 63 3.9 WSW 19 26 10 14 1020.7 1019.8 0.2
17/05:30pm 18.2 16.4 10.8 62 4.1 WSW 11 19 6 10 1020.4 1019.5 0.2
17/05:00pm 18.6 14.7 10.7 60 4.4 WSW 22 32 12 17 1019.8 1018.8 0.2
17/04:30pm 19.9 15.4 11.4 58 4.8 WSW 26 41 14 22 1019.4 1018.4 0.2
17/04:00pm 21.2 18.7 11.2 53 5.7 WSW 15 22 8 12 1018.8 1017.9 0.2
17/03:30pm 21.6 19.3 11.6 53 5.7 SW 15 24 8 13 1018.6 1017.6 0.2
17/03:00pm 21.7 18.3 11.1 51 6.0 WSW 20 32 11 17 1018.4 1017.4 0.2
17/02:30pm 22.1 17.6 8.6 42 7.3 W 22 30 12 16 1017.9 1016.9 0.2
17/02:00pm 23.3 17.3 8.6 39 8.0 W 30 43 16 23 1017.6 1016.6 0.2
17/01:30pm 25.2 18.3 7.3 32 9.6 W 33 48 18 26 1017.3 1016.3 0.2
17/01:00pm 26.9 19.0 2.1 20 12.3 NW 33 52 18 28 1017.6 1016.6 0.2
17/12:30pm 26.2 17.4 3.5 23 11.5 NW 39 57 21 31 1017.9 1016.9 0.2
17/12:00pm 25.7 18.1 3.0 23 11.4 NW 32 50 17 27 1018.2 1017.2 0.2
17/11:30am 24.4 15.8 2.5 24 10.8 NW 37 67 20 36 1018.4 1017.4 0.0
17/11:00am 24.7 16.0 2.2 23 11.0 NW 37 61 20 33 1018.0 1017.0 0.0
17/10:50am 24.5 17.3 3.2 25 10.6 NW 30 48 16 26 1018.2 1017.2 0.0
17/10:30am 23.8 16.4 4.2 28 9.9 NNW 32 43 17 23 1018.2 1017.2 0.0
17/10:15am 22.9 16.4 4.9 31 9.2 NNW 28 46 15 25 1018.2 1017.2 0.0
17/10:00am 22.7 15.9 3.3 28 9.6 NNW 28 43 15 23 1018.4 1017.4 0.0
17/09:30am 22.4 16.1 3.5 29 9.3 NNW 26 43 14 23 1019.0 1018.1 0.0
17/09:00am 22.6 16.3 3.7 29 9.4 NW 26 37 14 20 1019.5 1018.5 0.0
17/08:30am 22.0 15.9 5.0 33 8.6 NW 26 44 14 24 1019.6 1018.6 0.0
17/08:00am 21.0 14.6 5.4 36 7.9 WNW 28 41 15 22 1019.2 1018.2 0.0
17/07:30am 22.4 17.3 4.0 30 9.2 NW 20 33 11 18 1018.5 1017.5 0.0
17/07:00am 22.6 16.8 4.2 30 9.2 WNW 24 33 13 18 1018.0 1017.0 0.0
17/06:30am 23.0 17.1 4.0 29 9.5 WNW 24 35 13 19 1017.5 1016.5 0.0
17/06:00am 23.7 18.4 3.1 26 10.2 NNW 20 35 11 19 1016.5 1015.5 0.0
17/05:30am 23.7 18.4 3.1 26 10.2 NW 20 33 11 18 1016.5 1015.5 0.0
17/05:00am 23.9 16.6 2.7 25 10.4 N 30 43 16 23 1015.6 1014.6 0.0
17/04:30am 24.0 17.1 2.8 25 10.5 N 28 39 15 21 1015.3 1014.2 0.0
17/04:00am 24.2 17.3 2.4 24 10.7 N 28 41 15 22 1015.2 1014.1 0.0
17/03:30am 24.5 17.6 2.6 24 10.8 N 28 43 15 23 1015.5 1014.5 0.0
17/03:14am 24.7 17.0 2.2 23 11.0 N 32 50 17 27 1015.4 1014.4 0.0
17/03:00am 24.9 16.6 2.4 23 11.1 N 35 52 19 28 1015.4 1014.4 0.0
17/02:30am 24.8 17.1 2.3 23 11.1 N 32 50 17 27 1015.7 1014.7 0.0
17/02:23am 24.8 17.1 2.3 23 11.1 N 32 50 17 27 1015.7 1014.7 0.0
17/02:00am 24.6 17.2 2.1 23 11.0 N 30 43 16 23 1015.7 1014.7 0.0
17/01:30am 24.8 17.1 2.3 23 11.1 N 32 43 17 23 1016.0 1015.0 0.0
17/01:00am 25.1 17.1 1.9 22 11.4 N 33 48 18 26 1016.1 1015.1 0.0
17/12:35am 25.6 17.7 2.3 22 11.5 N 33 52 18 28 1016.2 1015.2 0.0
17/12:30am 25.6 17.6 1.7 21 11.7 N 33 48 18 26 1016.1 1015.1 0.0
17/12:00am 25.3 17.6 2.1 22 11.4 N 32 46 17 25 1016.2 1015.2 0.0
 
Date/Time
CST
Temp
°C
App
Temp
°C
Dew
Point
°C
Rel
Hum
%
Delta-T
°C
Wind Press
QNH
hPa
Press
MSL
hPa
Rain since
9am
mm
Dir  Spd
km/h
Gust
km/h
Spd
kts
Gust
kts
16/11:30pm 25.4 18.4 2.2 22 11.4 N 28 41 15 22 1016.7 1015.7 0.0
16/11:00pm 25.9 19.4 2.6 22 11.6 N 26 35 14 19 1017.2 1016.2 0.0
16/10:30pm 25.9 19.0 2.6 22 11.6 N 28 41 15 22 1017.3 1016.3 0.0
16/10:00pm 26.0 19.1 2.7 22 11.6 N 28 41 15 22 1017.4 1016.4 0.0
16/09:30pm 25.9 19.5 3.2 23 11.4 N 26 35 14 19 1017.6 1016.6 0.0
16/09:00pm 26.1 19.7 3.4 23 11.5 N 26 35 14 19 1017.7 1016.7 0.0
16/08:30pm 26.1 20.6 4.0 24 11.3 N 22 30 12 16 1017.6 1016.6 0.0
16/08:00pm 26.5 20.9 3.7 23 11.6 N 22 30 12 16 1017.5 1016.5 0.0
16/07:30pm 26.3 21.1 3.5 23 11.6 N 20 24 11 13 1017.3 1016.3 0.0
16/07:00pm 26.6 21.6 3.8 23 11.7 N 19 26 10 14 1017.3 1016.3 0.0
16/06:30pm 27.0 21.4 3.5 22 12.0 NNW 22 35 12 19 1017.1 1016.1 0.0
16/06:00pm 27.5 22.2 3.2 21 12.4 NNW 20 28 11 15 1016.8 1015.8 0.0
16/05:30pm 28.3 21.9 3.2 20 12.8 NNW 26 37 14 20 1016.5 1015.5 0.0
16/05:00pm 29.0 22.6 3.1 19 13.3 NNW 26 35 14 19 1016.3 1015.3 0.0
16/04:30pm 29.6 22.9 3.6 19 13.5 NW 28 43 15 23 1016.2 1015.2 0.0
16/04:00pm 29.9 22.1 3.0 18 13.9 NW 33 52 18 28 1016.3 1015.3 0.0
16/03:58pm 29.7 21.9 2.9 18 13.8 NW 33 52 18 28 1016.2 1015.2 0.0

Latest Capital City Observations: Canberra | Sydney | Melbourne | Brisbane | Adelaide | Perth | Hobart | Darwin

Other formats

Comma delimited format used in spreadsheet applications
http://www.bom.gov.au/fwo/IDS60901/IDS60901.94678.axf

JavaScript Object Notation format (JSON) in row-major order
http://www.bom.gov.au/fwo/IDS60901/IDS60901.94678.json

Data quality

Most of these data are generated automatically and are frequently updated. Quality checks on data are not normally performed. It is possible for incorrect values to appear. Refer to information at About Latest Weather Observations and please check the disclaimer before using these data.